Time;durP1;ratioP1;P1;durP2;ratioP2;P2;SDS_P1;SDS_P2;PMS_P1;PMS_P2;Temp;Humidity;BMP_temperature;BMP_pressure;BME280_temperature;BME280_humidity;BME280_pressure;Samples;Min_cycle;Max_cycle;Signal;HPM_P1;HPM_P2
2024/05/06 00:02:16;;;;;;;1.25;0.50;;;;;;;14.09;79.79;95543.03;5341123;26;20012;-62
2024/05/06 00:04:41;;;;;;;4.68;0.50;;;;;;;14.11;81.38;95543.50;5341938;26;20009;-63
2024/05/06 00:07:07;;;;;;;1.52;0.90;;;;;;;14.29;82.25;95544.53;5338953;26;20452;-62
2024/05/06 00:09:32;;;;;;;0.47;0.47;;;;;;;14.33;81.94;95545.53;5340935;26;20009;-63
2024/05/06 00:11:57;;;;;;;2.10;0.60;;;;;;;14.24;82.44;95531.38;5338681;26;20090;-63
2024/05/06 00:14:23;;;;;;;2.17;0.95;;;;;;;14.37;83.69;95530.56;5339832;26;20433;-63
2024/05/06 00:16:48;;;;;;;0.55;0.55;;;;;;;14.49;82.90;95528.28;5341173;26;20099;-62
2024/05/06 00:19:13;;;;;;;1.20;0.70;;;;;;;14.39;83.96;95523.13;5340041;26;20120;-62
2024/05/06 00:21:39;;;;;;;0.50;0.50;;;;;;;14.57;83.23;95510.88;5335868;26;20021;-63
2024/05/06 00:24:04;;;;;;;0.88;0.80;;;;;;;14.59;83.09;95512.16;5341468;26;20016;-62
2024/05/06 00:26:29;;;;;;;0.90;0.80;;;;;;;14.68;82.19;95508.81;5339915;26;20013;-64
2024/05/06 00:28:55;;;;;;;0.68;0.60;;;;;;;14.62;81.20;95508.91;5338739;26;20049;-62
2024/05/06 00:31:20;;;;;;;1.05;0.77;;;;;;;14.61;82.71;95503.88;5337638;26;20017;-62
2024/05/06 00:33:45;;;;;;;0.75;0.70;;;;;;;14.66;82.27;95506.47;5339628;26;20005;-62
2024/05/06 00:36:11;;;;;;;1.73;0.80;;;;;;;14.71;82.24;95502.91;5339235;26;20028;-62
2024/05/06 00:38:36;;;;;;;1.48;0.80;;;;;;;14.55;81.63;95500.53;5339617;26;20380;-63
2024/05/06 00:41:01;;;;;;;1.02;0.70;;;;;;;14.49;81.34;95504.38;5338057;26;20017;-62
2024/05/06 00:43:26;;;;;;;1.05;0.82;;;;;;;14.59;82.73;95501.53;5338919;26;20001;-63
2024/05/06 00:45:53;;;;;;;1.10;0.88;;;;;;;14.56;81.69;95502.16;5341404;26;20018;-63
2024/05/06 00:48:20;;;;;;;0.75;0.75;;;;;;;14.44;81.79;95501.78;5345285;26;20023;-63
2024/05/06 00:50:45;;;;;;;1.65;1.05;;;;;;;14.44;82.86;95493.84;5337724;26;20013;-62
2024/05/06 00:53:11;;;;;;;1.70;1.00;;;;;;;14.27;83.23;95483.78;5338619;26;20023;-62
2024/05/06 00:55:38;;;;;;;1.23;0.93;;;;;;;14.07;82.73;95469.00;5329713;26;20087;-62
2024/05/06 00:58:07;;;;;;;0.75;0.70;;;;;;;14.01;85.39;95464.88;5340195;26;20667;-62
2024/05/06 01:00:33;;;;;;;1.63;0.80;;;;;;;14.01;86.08;95467.53;5340171;26;20008;-62
2024/05/06 01:02:59;;;;;;;1.75;1.23;;;;;;;14.24;83.88;95462.38;5338810;26;20012;-62
2024/05/06 01:05:25;;;;;;;1.63;1.10;;;;;;;14.11;83.86;95470.00;5340059;26;20005;-62
2024/05/06 01:07:51;;;;;;;1.08;0.85;;;;;;;14.19;83.99;95475.72;5340372;26;20024;-62
2024/05/06 01:10:17;;;;;;;1.73;0.98;;;;;;;14.21;84.50;95471.69;5337995;26;20464;-61
2024/05/06 01:12:42;;;;;;;1.73;1.05;;;;;;;14.36;83.03;95473.28;5339450;26;20143;-61
2024/05/06 01:15:07;;;;;;;2.55;1.05;;;;;;;14.36;83.08;95470.63;5339653;26;20027;-61
2024/05/06 01:17:33;;;;;;;5.78;0.80;;;;;;;14.38;83.25;95474.56;5341306;26;20016;-60
2024/05/06 01:19:58;;;;;;;0.80;0.80;;;;;;;14.31;83.10;95476.03;5340353;26;20023;-61
2024/05/06 01:22:50;;;;;;;2.97;1.10;;;;;;;14.40;80.73;95470.81;5339847;26;20017;-61
2024/05/06 01:25:16;;;;;;;1.42;0.93;;;;;;;14.35;83.00;95475.16;5336437;26;20801;-60
2024/05/06 01:27:41;;;;;;;1.13;1.00;;;;;;;14.35;81.02;95469.06;5340663;26;20021;-61
2024/05/06 01:30:07;;;;;;;1.45;1.05;;;;;;;14.25;83.09;95469.25;5339694;26;20009;-61
2024/05/06 01:32:33;;;;;;;1.20;1.10;;;;;;;14.06;83.70;95466.66;5341505;26;20095;-61
2024/05/06 01:34:58;;;;;;;1.38;1.10;;;;;;;14.09;82.44;95460.78;5336912;26;20086;-60
2024/05/06 01:37:23;;;;;;;3.20;1.10;;;;;;;14.21;83.76;95463.72;5338833;26;20392;-61
2024/05/06 01:39:49;;;;;;;1.15;0.85;;;;;;;14.18;82.69;95463.53;5340277;26;20503;-61
2024/05/06 01:42:14;;;;;;;1.85;1.15;;;;;;;14.11;83.00;95472.66;5339969;26;20021;-60
2024/05/06 01:44:39;;;;;;;1.17;1.05;;;;;;;14.07;82.35;95476.19;5340921;26;20004;-61
2024/05/06 01:47:05;;;;;;;1.42;1.05;;;;;;;14.12;81.92;95471.56;5338397;26;20005;-61
2024/05/06 01:49:30;;;;;;;1.77;1.00;;;;;;;14.05;80.66;95476.50;5339037;26;20024;-61
2024/05/06 01:51:55;;;;;;;2.05;1.20;;;;;;;13.94;81.63;95468.97;5338422;26;20461;-61
2024/05/06 01:54:21;;;;;;;2.35;0.88;;;;;;;13.82;82.76;95477.41;5339315;26;20020;-61
2024/05/06 01:56:46;;;;;;;0.80;0.80;;;;;;;13.55;83.03;95484.19;5339042;26;20090;-61
2024/05/06 01:59:12;;;;;;;1.50;0.95;;;;;;;13.48;84.61;95483.78;5339289;26;20356;-61
2024/05/06 02:01:37;;;;;;;1.67;1.10;;;;;;;13.51;82.42;95477.91;5339864;26;20040;-62
2024/05/06 02:04:02;;;;;;;0.65;0.52;;;;;;;12.80;85.28;95482.28;5340818;26;20023;-61
2024/05/06 02:06:27;;;;;;;1.38;0.90;;;;;;;13.07;84.47;95479.00;5340686;26;20036;-61
2024/05/06 02:08:53;;;;;;;1.52;0.70;;;;;;;13.14;83.81;95476.03;5338255;26;20018;-61
2024/05/06 02:11:18;;;;;;;0.63;0.63;;;;;;;12.73;85.86;95473.13;5338110;26;20119;-61
2024/05/06 02:13:43;;;;;;;0.95;0.75;;;;;;;12.83;86.89;95471.13;5338987;26;20078;-61
2024/05/06 02:16:08;;;;;;;1.10;1.00;;;;;;;12.90;85.81;95468.13;5338417;26;20460;-61
2024/05/06 02:18:34;;;;;;;1.13;0.90;;;;;;;12.86;85.79;95459.19;5339873;26;20016;-61
2024/05/06 02:20:59;;;;;;;1.02;0.88;;;;;;;13.07;85.15;95462.34;5339151;26;20023;-61
2024/05/06 02:23:24;;;;;;;1.13;0.65;;;;;;;12.48;86.60;95467.06;5337253;26;20064;-61
2024/05/06 02:25:50;;;;;;;0.60;0.60;;;;;;;12.76;84.10;95454.81;5339615;26;20005;-61
2024/05/06 02:28:15;;;;;;;0.70;0.70;;;;;;;12.82;84.73;95453.66;5338803;26;20005;-61
2024/05/06 02:30:40;;;;;;;3.40;0.77;;;;;;;12.76;83.53;95454.81;5340136;26;20012;-60
2024/05/06 02:33:06;;;;;;;1.33;0.80;;;;;;;12.92;83.36;95452.75;5337963;26;20178;-61
2024/05/06 02:35:31;;;;;;;1.23;0.82;;;;;;;12.64;84.83;95443.06;5338641;26;20013;-61
2024/05/06 02:37:56;;;;;;;0.90;0.77;;;;;;;12.81;84.53;95432.78;5338969;26;20053;-61
2024/05/06 02:40:22;;;;;;;1.05;0.80;;;;;;;12.82;86.37;95440.44;5339354;26;20056;-61
2024/05/06 02:42:47;;;;;;;1.20;0.63;;;;;;;12.97;83.84;95447.38;5340193;26;20028;-61
2024/05/06 02:45:12;;;;;;;0.93;0.65;;;;;;;12.78;84.64;95439.41;5338234;26;20005;-60
2024/05/06 02:47:37;;;;;;;1.05;0.75;;;;;;;12.80;86.60;95434.66;5337427;26;20048;-61
2024/05/06 02:50:03;;;;;;;2.17;0.80;;;;;;;12.98;85.11;95442.88;5339315;26;20083;-61
2024/05/06 02:52:28;;;;;;;3.40;1.08;;;;;;;12.91;83.95;95434.50;5338058;26;20033;-61
2024/05/06 02:54:53;;;;;;;1.15;0.60;;;;;;;12.91;84.07;95435.28;5338062;26;20008;-61
2024/05/06 02:57:19;;;;;;;4.65;0.90;;;;;;;12.65;84.75;95426.09;5339927;26;20523;-61
2024/05/06 02:59:44;;;;;;;1.90;1.35;;;;;;;12.82;83.60;95426.41;5345175;26;20434;-61
2024/05/06 03:02:09;;;;;;;1.38;1.02;;;;;;;12.82;85.72;95421.13;5338363;26;20082;-61
2024/05/06 03:04:36;;;;;;;1.05;0.93;;;;;;;12.79;86.44;95411.09;5339104;26;20656;-61
2024/05/06 03:07:01;;;;;;;1.08;0.77;;;;;;;12.63;86.27;95415.00;5338278;26;20094;-61
2024/05/06 03:09:26;;;;;;;4.28;1.17;;;;;;;12.45;87.45;95419.97;5338472;26;20041;-61
2024/05/06 03:11:52;;;;;;;0.93;0.80;;;;;;;12.51;86.11;95429.47;5336086;26;20027;-61
2024/05/06 03:14:17;;;;;;;0.93;0.85;;;;;;;12.46;85.02;95428.72;5338327;26;20024;-61
2024/05/06 03:16:42;;;;;;;0.70;0.70;;;;;;;12.05;87.75;95429.19;5338447;26;20009;-61
2024/05/06 03:19:14;;;;;;;0.63;0.63;;;;;;;12.04;87.95;95433.69;5339102;26;20337;-60
2024/05/06 03:21:40;;;;;;;1.75;1.10;;;;;;;12.09;88.72;95432.84;5328746;26;20012;-61
2024/05/06 03:24:05;;;;;;;2.33;0.77;;;;;;;12.11;87.65;95441.25;5336012;26;20033;-61
2024/05/06 03:26:31;;;;;;;0.85;0.80;;;;;;;12.12;86.17;95439.41;5338921;26;20399;-61
2024/05/06 03:28:56;;;;;;;1.30;0.95;;;;;;;12.05;86.67;95437.09;5339282;26;20005;-60
2024/05/06 03:31:21;;;;;;;1.67;1.00;;;;;;;12.10;87.32;95428.34;5338731;26;20009;-61
2024/05/06 03:33:47;;;;;;;2.63;1.20;;;;;;;12.21;86.47;95430.56;5341241;26;20013;-61
2024/05/06 03:36:12;;;;;;;4.65;0.93;;;;;;;12.28;84.90;95435.53;5340694;26;20330;-61
2024/05/06 03:38:37;;;;;;;1.25;0.80;;;;;;;11.88;83.75;95436.75;5346985;26;20009;-61
2024/05/06 03:41:04;;;;;;;0.60;0.60;;;;;;;11.88;85.38;95432.28;5339777;26;20001;-61
2024/05/06 03:43:32;;;;;;;1.58;0.80;;;;;;;11.86;85.98;95429.09;5339883;26;20292;-61
2024/05/06 03:45:58;;;;;;;1.75;0.57;;;;;;;11.77;85.33;95436.03;5340635;26;20084;-61
2024/05/06 03:48:23;;;;;;;1.42;0.80;;;;;;;11.76;86.77;95434.44;5338954;26;20479;-61
2024/05/06 03:50:48;;;;;;;0.88;0.73;;;;;;;11.83;85.51;95424.34;5340432;26;21100;-61
2024/05/06 03:53:13;;;;;;;2.38;0.80;;;;;;;11.77;87.65;95425.44;5339372;26;20017;-61
2024/05/06 03:55:39;;;;;;;1.42;1.10;;;;;;;11.53;87.80;95434.09;5335726;26;20004;-61
2024/05/06 03:58:04;;;;;;;1.00;0.73;;;;;;;11.65;86.13;95427.69;5340406;26;20013;-61
2024/05/06 04:00:30;;;;;;;0.63;0.63;;;;;;;11.60;86.48;95440.94;5339980;26;20008;-61
2024/05/06 04:02:55;;;;;;;0.90;0.90;;;;;;;11.40;86.62;95434.78;5340830;26;20028;-61
2024/05/06 04:05:20;;;;;;;2.50;0.70;;;;;;;11.79;85.11;95433.91;5340559;26;20021;-61
2024/05/06 04:07:45;;;;;;;1.88;0.82;;;;;;;11.82;84.61;95428.84;5340223;26;20009;-61
2024/05/06 04:10:11;;;;;;;2.38;0.68;;;;;;;11.86;85.16;95418.53;5338999;26;20128;-61
2024/05/06 04:12:36;;;;;;;0.52;0.52;;;;;;;11.89;83.21;95428.56;5340430;26;20049;-61
2024/05/06 04:15:03;;;;;;;1.00;0.82;;;;;;;11.63;84.00;95429.81;5340628;26;20008;-61
2024/05/06 04:17:29;;;;;;;1.98;0.70;;;;;;;11.97;83.80;95424.50;5341167;26;20008;-61
2024/05/06 04:19:54;;;;;;;1.35;0.70;;;;;;;11.97;83.49;95433.22;5338701;26;20107;-61
2024/05/06 04:22:19;;;;;;;0.70;0.70;;;;;;;11.96;84.63;95428.22;5341081;26;20027;-60
2024/05/06 04:27:28;;;;;;;1.02;0.80;;;;;;;12.05;86.32;95429.97;5338635;26;20042;-61
2024/05/06 04:29:54;;;;;;;0.80;0.68;;;;;;;12.13;85.39;95427.78;5339045;26;20005;-61
2024/05/06 04:32:19;;;;;;;1.45;0.95;;;;;;;12.29;85.72;95431.81;5337158;26;20024;-61
2024/05/06 04:34:44;;;;;;;0.93;0.82;;;;;;;12.18;86.59;95431.16;5336815;26;20012;-61
2024/05/06 04:37:10;;;;;;;0.80;0.80;;;;;;;12.23;86.00;95435.59;5336811;26;20463;-60
2024/05/06 04:39:36;;;;;;;1.38;1.10;;;;;;;12.40;86.67;95438.56;5340904;26;20141;-60
2024/05/06 04:42:01;;;;;;;1.88;1.10;;;;;;;12.30;88.52;95433.41;5338206;26;20012;-60
2024/05/06 04:44:26;;;;;;;2.72;1.20;;;;;;;12.39;89.14;95442.28;5340902;26;20020;-60
2024/05/06 04:46:51;;;;;;;3.78;1.98;;;;;;;12.70;88.72;95436.66;5339480;26;20025;-61
2024/05/06 04:49:17;;;;;;;2.75;1.92;;;;;;;12.84;88.26;95426.94;5341313;26;20009;-60
2024/05/06 04:51:42;;;;;;;7.50;1.60;;;;;;;13.00;88.07;95433.56;5339905;26;20019;-61
2024/05/06 04:54:09;;;;;;;3.10;1.58;;;;;;;13.40;85.47;95434.06;5339996;26;20017;-61
2024/05/06 04:56:35;;;;;;;2.58;1.77;;;;;;;13.35;85.62;95431.50;5339818;26;20370;-61
2024/05/06 04:59:00;;;;;;;2.63;2.40;;;;;;;13.35;88.50;95428.84;5340489;26;20027;-61
2024/05/06 05:01:25;;;;;;;2.42;1.58;;;;;;;13.58;86.92;95430.59;5334932;26;20009;-61
2024/05/06 05:03:50;;;;;;;5.75;2.80;;;;;;;13.40;86.59;95430.63;5340674;26;20013;-61
2024/05/06 05:06:16;;;;;;;4.75;3.03;;;;;;;13.52;86.44;95428.34;5340201;26;20019;-61
2024/05/06 05:08:41;;;;;;;5.13;2.58;;;;;;;13.64;86.59;95433.16;5339085;26;20012;-61
2024/05/06 05:11:07;;;;;;;5.88;2.50;;;;;;;13.53;87.09;95428.03;5340386;26;20008;-61
2024/05/06 05:13:32;;;;;;;3.78;2.13;;;;;;;12.97;91.02;95431.50;5339583;26;20039;-60
2024/05/06 05:15:57;;;;;;;3.75;2.33;;;;;;;13.24;91.52;95430.09;5339666;26;20016;-60
2024/05/06 05:18:22;;;;;;;4.65;2.10;;;;;;;13.73;88.62;95434.88;5338167;26;20008;-60
2024/05/06 05:20:48;;;;;;;12.43;1.92;;;;;;;13.86;85.89;95435.97;5337482;26;20009;-61
2024/05/06 05:23:13;;;;;;;5.07;1.90;;;;;;;13.79;85.44;95435.56;5339052;26;20352;-62
2024/05/06 05:25:38;;;;;;;3.10;1.77;;;;;;;13.66;87.24;95441.63;5339753;26;20020;-61
2024/05/06 05:28:04;;;;;;;2.28;1.45;;;;;;;13.23;88.36;95433.81;5338449;26;20355;-61
2024/05/06 05:30:29;;;;;;;2.75;1.77;;;;;;;12.63;93.31;95438.84;5339617;26;20023;-61
2024/05/06 05:32:54;;;;;;;3.83;2.35;;;;;;;12.63;93.65;95433.53;5339278;26;20089;-60
2024/05/06 05:35:20;;;;;;;3.95;1.90;;;;;;;13.28;91.34;95428.44;5339249;26;20009;-61
2024/05/06 05:37:45;;;;;;;2.50;1.90;;;;;;;13.51;90.45;95424.91;5339049;26;20090;-60
2024/05/06 05:40:10;;;;;;;3.15;1.90;;;;;;;13.34;89.25;95424.63;5333794;26;20291;-61
2024/05/06 05:42:36;;;;;;;3.47;2.08;;;;;;;13.46;89.36;95427.63;5339884;26;20026;-61
2024/05/06 05:45:01;;;;;;;3.08;2.08;;;;;;;13.70;87.26;95427.50;5339878;26;20362;-61
2024/05/06 05:47:27;;;;;;;5.18;2.28;;;;;;;13.59;87.01;95426.09;5339181;26;20024;-61
2024/05/06 05:49:52;;;;;;;2.00;1.85;;;;;;;13.28;89.21;95417.84;5337817;26;20015;-61
2024/05/06 05:52:17;;;;;;;1.83;1.50;;;;;;;13.12;91.09;95427.84;5338657;26;20349;-61
2024/05/06 05:54:42;;;;;;;6.38;2.00;;;;;;;13.28;89.97;95436.38;5340497;26;20283;-61
2024/05/06 05:57:08;;;;;;;2.13;1.77;;;;;;;13.09;90.30;95431.06;5340111;26;20497;-61
2024/05/06 05:59:33;;;;;;;1.85;1.55;;;;;;;13.17;93.13;95435.69;5347812;26;20246;-60
2024/05/06 06:01:58;;;;;;;3.22;1.92;;;;;;;13.23;90.79;95433.81;5337478;26;20332;-61
2024/05/06 06:04:23;;;;;;;2.85;1.88;;;;;;;13.49;89.97;95432.34;5334384;26;20013;-61
2024/05/06 06:06:49;;;;;;;2.28;1.52;;;;;;;13.65;88.03;95430.22;5339152;26;20368;-61
2024/05/06 06:09:15;;;;;;;2.50;1.75;;;;;;;13.76;87.46;95441.47;5339228;26;20016;-61
2024/05/06 06:11:40;;;;;;;2.17;1.70;;;;;;;13.86;87.39;95435.97;5338110;26;20024;-61
2024/05/06 06:14:05;;;;;;;2.47;1.85;;;;;;;13.38;88.67;95444.19;5335651;26;20021;-61
2024/05/06 06:16:30;;;;;;;2.40;2.00;;;;;;;13.18;94.08;95442.59;5333664;26;20005;-61
2024/05/06 06:18:56;;;;;;;2.60;2.10;;;;;;;13.55;94.52;95447.06;5336561;26;20027;-60
2024/05/06 06:21:21;;;;;;;10.52;2.10;;;;;;;13.64;92.28;95438.47;5338509;26;20836;-61
2024/05/06 06:23:46;;;;;;;3.28;1.90;;;;;;;13.72;91.83;95440.47;5335799;26;20028;-61
2024/05/06 06:26:12;;;;;;;3.22;2.40;;;;;;;14.08;89.77;95440.63;5320890;26;20004;-61
2024/05/06 06:28:37;;;;;;;2.97;2.27;;;;;;;14.05;88.20;95439.34;5338739;26;20024;-61
2024/05/06 06:31:02;;;;;;;2.47;1.63;;;;;;;14.26;88.50;95438.97;5339131;26;20232;-61
2024/05/06 06:33:28;;;;;;;5.85;1.85;;;;;;;14.45;86.44;95439.66;5335987;26;20255;-61
2024/05/06 06:35:53;;;;;;;3.30;2.22;;;;;;;14.83;82.93;95442.13;5338040;26;20017;-61
2024/05/06 06:38:18;;;;;;;2.25;1.75;;;;;;;15.23;82.25;95444.97;5337284;26;20452;-61
2024/05/06 06:40:44;;;;;;;3.67;1.95;;;;;;;15.17;80.24;95438.97;5336507;26;20012;-61
2024/05/06 06:43:09;;;;;;;2.17;1.63;;;;;;;15.52;77.67;95441.91;5330454;26;20012;-62
2024/05/06 06:45:34;;;;;;;3.00;1.80;;;;;;;15.80;76.79;95447.91;5342241;26;20085;-61
2024/05/06 06:48:00;;;;;;;2.88;1.75;;;;;;;16.09;78.57;95448.22;5330882;26;20089;-61
2024/05/06 06:50:25;;;;;;;2.42;1.60;;;;;;;16.10;77.65;95433.84;5336062;26;20008;-60
2024/05/06 06:52:50;;;;;;;3.25;2.28;;;;;;;15.91;78.46;95443.91;5336650;26;20055;-61
2024/05/06 06:55:16;;;;;;;3.13;1.85;;;;;;;16.54;78.44;95440.13;5333186;26;20018;-61
2024/05/06 06:57:41;;;;;;;3.33;1.60;;;;;;;17.03;73.35;95440.09;5338513;26;20024;-60
2024/05/06 07:00:07;;;;;;;1.60;1.35;;;;;;;17.02;74.32;95441.97;5336909;26;20028;-62
2024/05/06 07:02:32;;;;;;;2.65;1.60;;;;;;;15.88;77.92;95460.47;5336571;26;20094;-62
2024/05/06 07:04:57;;;;;;;2.58;1.50;;;;;;;16.29;78.26;95454.09;5333661;26;20013;-61
2024/05/06 07:07:22;;;;;;;3.10;1.80;;;;;;;16.46;76.40;95456.84;5336360;26;20024;-61
2024/05/06 07:09:48;;;;;;;5.23;2.07;;;;;;;15.47;81.31;95450.00;5335366;26;20013;-61
2024/05/06 07:12:13;;;;;;;2.58;1.83;;;;;;;15.81;81.75;95446.81;5335628;26;20727;-62
2024/05/06 07:14:39;;;;;;;3.47;1.83;;;;;;;16.08;79.97;95437.88;5338754;26;20020;-62
2024/05/06 07:17:04;;;;;;;3.58;1.40;;;;;;;16.79;77.11;95435.19;5338174;26;20556;-61
2024/05/06 07:19:30;;;;;;;1.88;1.48;;;;;;;16.91;77.54;95440.69;5337378;26;20709;-62
2024/05/06 07:21:55;;;;;;;1.58;1.27;;;;;;;17.00;75.17;95436.16;5336335;26;20033;-61
2024/05/06 07:24:20;;;;;;;2.38;1.60;;;;;;;16.66;76.27;95447.50;5338595;26;20005;-61
2024/05/06 07:26:47;;;;;;;5.88;1.45;;;;;;;16.44;77.44;95444.94;5337403;26;20019;-61
2024/05/06 07:29:13;;;;;;;2.28;1.38;;;;;;;16.48;77.18;95440.53;5337273;26;20021;-61
2024/05/06 07:31:38;;;;;;;1.83;1.42;;;;;;;17.12;75.79;95433.66;5335090;26;20078;-62
2024/05/06 07:34:03;;;;;;;2.15;1.67;;;;;;;16.99;75.44;95431.91;5342958;26;20009;-62
2024/05/06 07:36:28;;;;;;;2.28;1.63;;;;;;;17.40;74.56;95430.69;5336313;26;20012;-62
2024/05/06 07:38:54;;;;;;;3.08;1.63;;;;;;;17.93;70.04;95434.88;5333320;26;20086;-62
2024/05/06 07:41:19;;;;;;;2.17;1.48;;;;;;;18.06;69.06;95428.56;5334706;26;20028;-62
2024/05/06 07:43:44;;;;;;;2.28;1.52;;;;;;;18.47;67.96;95427.16;5335904;26;21461;-62
2024/05/06 07:46:10;;;;;;;3.67;1.80;;;;;;;18.56;67.95;95419.09;5336491;26;20012;-62
2024/05/06 07:48:35;;;;;;;4.05;1.90;;;;;;;18.79;66.55;95422.31;5336936;26;20296;-62
2024/05/06 07:51:00;;;;;;;1.80;1.13;;;;;;;18.97;66.98;95426.41;5336211;26;20029;-61
2024/05/06 07:53:26;;;;;;;2.22;1.48;;;;;;;19.34;65.28;95426.63;5335488;26;20469;-61
2024/05/06 07:55:51;;;;;;;1.70;1.10;;;;;;;19.76;63.81;95423.94;5328396;26;20010;-62
2024/05/06 07:58:16;;;;;;;3.38;1.45;;;;;;;20.05;62.41;95423.78;5334495;26;20060;-61
2024/05/06 08:00:42;;;;;;;1.30;1.00;;;;;;;20.31;61.26;95422.69;5329529;26;20009;-61
2024/05/06 08:03:09;;;;;;;1.73;0.90;;;;;;;20.40;62.73;95418.00;5335345;26;20012;-62
2024/05/06 08:05:34;;;;;;;1.98;1.20;;;;;;;20.20;62.31;95415.09;5335864;26;20008;-62
2024/05/06 08:07:59;;;;;;;2.57;1.30;;;;;;;20.16;59.81;95419.53;5328666;26;20836;-61
2024/05/06 08:10:25;;;;;;;2.40;1.20;;;;;;;20.49;60.86;95416.03;5331269;26;20287;-61
2024/05/06 08:12:50;;;;;;;1.80;1.05;;;;;;;20.54;59.13;95412.34;5334638;26;20021;-61
2024/05/06 08:15:15;;;;;;;2.08;1.17;;;;;;;20.71;59.05;95412.13;5333167;26;20014;-61
2024/05/06 08:17:41;;;;;;;2.25;0.93;;;;;;;20.71;58.64;95409.44;5338295;26;20016;-61
2024/05/06 08:20:06;;;;;;;2.53;1.10;;;;;;;20.97;57.85;95414.44;5337526;26;20017;-61
2024/05/06 08:22:31;;;;;;;1.88;0.90;;;;;;;21.56;57.77;95413.84;5338462;26;20492;-60
2024/05/06 08:24:57;;;;;;;1.73;1.10;;;;;;;21.71;56.69;95405.06;5336822;26;20491;-61
2024/05/06 08:27:22;;;;;;;0.68;0.65;;;;;;;22.22;56.54;95415.97;5364680;26;20023;-61
2024/05/06 08:29:47;;;;;;;1.65;0.80;;;;;;;21.74;56.87;95407.03;5337088;26;20087;-61
2024/05/06 08:32:13;;;;;;;0.75;0.50;;;;;;;22.28;57.13;95411.91;5337792;26;20685;-61
2024/05/06 08:34:39;;;;;;;0.98;0.80;;;;;;;22.82;55.38;95407.78;5342499;26;20086;-60
2024/05/06 08:37:04;;;;;;;0.75;0.60;;;;;;;23.11;54.09;95406.53;5334495;26;20578;-60
2024/05/06 08:39:29;;;;;;;1.50;1.05;;;;;;;23.64;52.80;95414.91;5337918;26;20013;-62
2024/05/06 08:41:56;;;;;;;0.73;0.68;;;;;;;23.09;52.13;95406.06;5336486;26;20357;-61
2024/05/06 08:44:29;;;;;;;3.80;1.00;;;;;;;22.82;53.01;95407.00;5339092;26;20118;-61
2024/05/06 08:47:04;;;;;;;1.33;1.08;;;;;;;23.36;52.60;95404.34;5336308;26;20004;-61
2024/05/06 08:49:30;;;;;;;1.38;0.77;;;;;;;23.65;52.13;95400.31;5331608;26;20017;-63
2024/05/06 08:51:56;;;;;;;1.70;1.08;;;;;;;23.54;50.28;95400.09;5332479;26;20710;-62
2024/05/06 08:54:22;;;;;;;2.45;0.60;;;;;;;23.23;50.93;95392.91;5336244;26;20384;-61
2024/05/06 08:56:48;;;;;;;2.83;1.23;;;;;;;23.28;51.72;95389.97;5334947;26;20005;-61
2024/05/06 08:59:16;;;;;;;0.90;0.65;;;;;;;23.03;52.10;95396.72;5335896;26;20027;-62
2024/05/06 09:01:45;;;;;;;1.27;0.80;;;;;;;23.38;51.02;95390.50;5334056;26;20009;-62
2024/05/06 09:04:13;;;;;;;1.02;0.52;;;;;;;23.48;51.53;95389.97;5336175;26;20025;-62
2024/05/06 09:06:39;;;;;;;1.75;0.75;;;;;;;23.66;50.09;95391.09;5337029;26;20025;-61
2024/05/06 09:09:04;;;;;;;0.60;0.60;;;;;;;23.61;51.10;95391.34;5336026;26;20015;-62
2024/05/06 09:11:36;;;;;;;7.40;0.80;;;;;;;23.27;51.00;95391.06;5335584;26;20059;-62
2024/05/06 09:14:02;;;;;;;2.60;0.75;;;;;;;23.20;52.18;95388.25;5332112;26;20012;-61
2024/05/06 09:16:27;;;;;;;1.00;0.70;;;;;;;23.56;51.12;95384.34;5335673;26;20009;-61
2024/05/06 09:18:53;;;;;;;2.17;0.90;;;;;;;23.79;52.10;95395.19;5337521;26;20142;-62
2024/05/06 09:21:18;;;;;;;1.45;0.63;;;;;;;24.19;50.31;95396.66;5332500;26;20025;-61
2024/05/06 09:23:43;;;;;;;0.40;0.40;;;;;;;24.25;48.88;95397.94;5333299;26;20042;-61
2024/05/06 09:26:18;;;;;;;3.00;1.15;;;;;;;24.50;48.13;95389.47;5333819;26;20005;-62
2024/05/06 09:28:44;;;;;;;0.68;0.47;;;;;;;24.69;47.01;95400.19;5336477;26;20473;-61
2024/05/06 09:31:09;;;;;;;1.90;0.60;;;;;;;24.63;46.98;95387.38;5335885;26;20008;-62
2024/05/06 09:33:36;;;;;;;0.50;0.50;;;;;;;24.88;46.87;95377.72;5335453;26;20001;-61
2024/05/06 09:36:02;;;;;;;0.93;0.40;;;;;;;25.07;46.62;95379.53;5337791;26;20024;-62
2024/05/06 09:38:28;;;;;;;6.85;0.75;;;;;;;25.36;45.20;95371.78;5336386;26;20001;-62
2024/05/06 09:40:53;;;;;;;0.40;0.30;;;;;;;25.40;44.54;95370.69;5334182;26;20107;-61
2024/05/06 09:43:22;;;;;;;0.80;0.50;;;;;;;25.91;44.19;95372.00;5335054;26;20016;-61
2024/05/06 09:45:50;;;;;;;1.83;0.43;;;;;;;26.02;44.42;95372.91;5337279;26;20243;-61
2024/05/06 09:48:16;;;;;;;0.88;0.50;;;;;;;26.24;44.06;95385.44;5327928;26;20005;-62
2024/05/06 09:50:42;;;;;;;1.80;0.80;;;;;;;26.41;43.36;95373.25;5336795;26;20459;-62
2024/05/06 09:53:09;;;;;;;1.00;0.60;;;;;;;25.71;42.83;95369.47;5334614;26;20009;-62
2024/05/06 09:55:35;;;;;;;0.73;0.60;;;;;;;25.69;44.69;95374.47;5335061;26;20023;-62
2024/05/06 09:58:02;;;;;;;1.50;0.70;;;;;;;26.07;45.13;95369.88;5336113;26;20011;-62
2024/05/06 10:00:31;;;;;;;1.33;0.40;;;;;;;26.41;40.85;95372.47;5337564;26;20009;-62
2024/05/06 10:02:57;;;;;;;2.38;0.82;;;;;;;26.72;42.77;95373.84;5335110;26;20016;-62
2024/05/06 10:05:22;;;;;;;0.77;0.50;;;;;;;27.26;42.56;95361.41;5335094;26;20009;-61
2024/05/06 10:07:48;;;;;;;1.85;0.57;;;;;;;27.87;41.53;95368.59;5337652;26;20412;-62
2024/05/06 10:10:14;;;;;;;1.35;0.43;;;;;;;28.01;39.57;95367.84;5335986;26;20131;-62
2024/05/06 10:12:43;;;;;;;2.42;0.40;;;;;;;28.26;39.83;95367.84;5332534;26;20049;-62
2024/05/06 10:15:08;;;;;;;1.50;0.57;;;;;;;28.02;40.36;95355.81;5333829;26;20444;-61
2024/05/06 10:17:40;;;;;;;2.63;0.60;;;;;;;28.55;39.44;95351.59;5338232;26;20082;-62
2024/05/06 10:20:16;;;;;;;3.60;0.70;;;;;;;28.92;39.05;95358.53;5333750;26;20506;-62
2024/05/06 10:22:52;;;;;;;1.48;0.47;;;;;;;28.33;38.55;95361.69;5336110;26;20027;-63
2024/05/06 10:25:19;;;;;;;1.95;0.43;;;;;;;27.90;39.00;95355.44;5335782;26;20593;-62
2024/05/06 10:27:48;;;;;;;1.08;0.60;;;;;;;26.90;41.59;95355.78;5336995;26;20013;-62
2024/05/06 10:30:14;;;;;;;0.60;0.22;;;;;;;26.81;41.58;95352.66;5335947;26;20016;-62
2024/05/06 10:32:40;;;;;;;1.10;0.60;;;;;;;26.91;40.79;95356.56;5335060;26;20009;-61
2024/05/06 10:35:06;;;;;;;1.00;0.60;;;;;;;26.03;42.48;95359.00;5334927;26;20008;-62
2024/05/06 10:37:34;;;;;;;0.60;0.40;;;;;;;26.33;42.64;95358.88;5336322;26;20015;-62
2024/05/06 10:40:04;;;;;;;1.70;0.45;;;;;;;25.89;41.72;95350.75;5332092;26;20081;-63
2024/05/06 10:42:29;;;;;;;1.70;0.45;;;;;;;26.27;42.29;95352.25;5336607;26;20009;-62
2024/05/06 10:44:55;;;;;;;0.32;0.30;;;;;;;26.92;42.10;95341.88;5333457;26;20013;-62
2024/05/06 10:47:21;;;;;;;0.43;0.38;;;;;;;27.25;41.38;95336.25;5335452;26;20013;-62
2024/05/06 10:49:46;;;;;;;0.45;0.30;;;;;;;27.90;40.27;95339.94;5336108;26;20019;-61
2024/05/06 10:52:12;;;;;;;3.10;0.32;;;;;;;28.42;39.33;95350.47;5335321;26;20013;-63
2024/05/06 10:54:39;;;;;;;1.60;0.40;;;;;;;28.18;39.46;95341.91;5337026;26;20008;-61
2024/05/06 10:57:06;;;;;;;0.52;0.30;;;;;;;28.00;39.09;95343.81;5335143;26;20611;-62
2024/05/06 10:59:32;;;;;;;1.23;0.50;;;;;;;27.93;38.52;95349.22;5336640;26;20020;-63
2024/05/06 11:01:59;;;;;;;0.80;0.40;;;;;;;27.40;39.55;95344.44;5333296;26;20056;-62
2024/05/06 11:04:26;;;;;;;1.65;0.50;;;;;;;27.46;40.87;95345.63;5336381;26;20005;-63
2024/05/06 11:06:51;;;;;;;0.52;0.20;;;;;;;27.16;39.88;95341.25;5335655;26;20009;-62
2024/05/06 11:09:17;;;;;;;1.30;0.40;;;;;;;26.52;40.23;95335.47;5334966;26;20052;-63
2024/05/06 11:11:42;;;;;;;1.33;0.47;;;;;;;26.69;42.43;95334.81;5335763;26;20452;-63
2024/05/06 11:14:08;;;;;;;2.00;0.38;;;;;;;26.94;41.34;95328.75;5332656;26;20053;-62
2024/05/06 11:16:33;;;;;;;0.63;0.45;;;;;;;26.96;41.95;95326.44;5335479;26;20059;-62
2024/05/06 11:19:00;;;;;;;0.75;0.45;;;;;;;27.14;41.67;95332.72;5335816;26;20005;-62
2024/05/06 11:21:33;;;;;;;2.83;0.70;;;;;;;26.80;41.18;95335.63;5335934;26;20012;-62
2024/05/06 11:24:04;;;;;;;0.65;0.38;;;;;;;26.60;40.80;95326.25;5335959;26;20028;-62
2024/05/06 11:26:30;;;;;;;0.40;0.30;;;;;;;26.61;40.80;95319.66;5336462;26;20005;-61
2024/05/06 11:28:55;;;;;;;0.90;0.45;;;;;;;26.55;42.19;95315.78;5332273;26;20020;-62
2024/05/06 11:31:22;;;;;;;0.73;0.35;;;;;;;27.41;40.36;95324.31;5333635;26;20008;-61